Time;durP1;ratioP1;P1;durP2;ratioP2;P2;SDS_P1;SDS_P2;PMS_P1;PMS_P2;Temp;Humidity;BMP_temperature;BMP_pressure;BME280_temperature;BME280_humidity;BME280_pressure;Samples;Min_cycle;Max_cycle;Signal;HPM_P1;HPM_P2
2023/05/07 00:00:34;;;;;;;10.30;4.30;;;12.60;99.90;;;;;;5042907;28;20529;-61
2023/05/07 00:03:01;;;;;;;4.40;4.00;;;12.60;99.90;;;;;;5036743;28;20207;-61
2023/05/07 00:05:26;;;;;;;8.30;4.20;;;12.50;99.90;;;;;;5043037;28;20183;-61
2023/05/07 00:07:52;;;;;;;5.73;4.17;;;12.50;99.90;;;;;;5030927;28;20467;-61
2023/05/07 00:10:19;;;;;;;4.80;4.30;;;12.50;99.90;;;;;;5037770;28;20183;-61
2023/05/07 00:12:44;;;;;;;5.90;4.17;;;12.40;99.90;;;;;;5038241;28;20290;-60
2023/05/07 00:15:10;;;;;;;5.27;4.40;;;12.40;99.90;;;;;;5044965;28;20517;-60
2023/05/07 00:17:36;;;;;;;7.57;4.53;;;12.40;99.90;;;;;;5039473;28;20183;-61
2023/05/07 00:20:04;;;;;;;7.20;5.30;;;12.30;99.90;;;;;;5034375;28;20439;-61
2023/05/07 00:22:30;;;;;;;5.63;4.93;;;12.30;99.90;;;;;;5036500;28;20840;-61
2023/05/07 00:24:56;;;;;;;6.10;4.57;;;12.30;99.90;;;;;;5044866;28;20518;-61
2023/05/07 00:27:22;;;;;;;5.87;4.40;;;12.30;99.90;;;;;;5042618;28;20711;-61
2023/05/07 00:29:48;;;;;;;6.67;4.90;;;12.30;99.90;;;;;;5036204;28;20275;-61
2023/05/07 00:32:14;;;;;;;5.77;4.20;;;12.30;99.90;;;;;;5044675;28;20868;-61
2023/05/07 00:34:39;;;;;;;6.67;5.10;;;12.20;99.90;;;;;;5044293;28;20172;-61
2023/05/07 00:37:07;;;;;;;11.03;5.20;;;12.30;99.90;;;;;;5039909;28;20198;-60
2023/05/07 00:39:33;;;;;;;5.23;4.23;;;12.20;99.90;;;;;;5043594;28;20191;-61
2023/05/07 00:41:59;;;;;;;8.53;5.47;;;12.20;99.90;;;;;;5046414;28;20475;-61
2023/05/07 00:44:24;;;;;;;10.07;4.90;;;12.20;99.90;;;;;;5047698;28;20917;-61
2023/05/07 00:46:50;;;;;;;5.00;4.50;;;12.20;99.90;;;;;;5042640;28;20222;-61
2023/05/07 00:49:16;;;;;;;5.47;4.40;;;12.20;99.90;;;;;;5042069;28;20194;-61
2023/05/07 00:51:42;;;;;;;6.87;4.40;;;12.20;99.90;;;;;;5027710;28;20202;-60
2023/05/07 00:54:08;;;;;;;7.93;5.07;;;12.20;99.90;;;;;;5047669;28;20433;-61
2023/05/07 00:56:34;;;;;;;6.30;4.50;;;12.10;99.90;;;;;;5041969;28;20210;-61
2023/05/07 00:59:02;;;;;;;5.17;4.40;;;12.10;99.90;;;;;;5044256;28;20187;-61
2023/05/07 01:01:28;;;;;;;7.10;4.63;;;12.10;99.90;;;;;;5045977;28;20544;-61
2023/05/07 01:03:54;;;;;;;4.53;3.90;;;12.10;99.90;;;;;;5042605;28;20632;-61
2023/05/07 01:06:21;;;;;;;6.57;4.53;;;12.00;99.90;;;;;;5041212;28;20431;-61
2023/05/07 01:08:50;;;;;;;5.10;4.40;;;12.00;99.90;;;;;;5047372;28;20207;-61
2023/05/07 01:11:16;;;;;;;7.47;4.57;;;12.00;99.90;;;;;;5042250;28;20433;-61
2023/05/07 01:13:42;;;;;;;4.90;4.33;;;12.00;99.90;;;;;;5035218;28;20467;-61
2023/05/07 01:16:09;;;;;;;5.30;4.53;;;11.90;99.90;;;;;;5049982;28;20519;-60
2023/05/07 01:18:35;;;;;;;7.80;4.83;;;11.90;99.90;;;;;;5043969;28;20438;-61
2023/05/07 01:21:03;;;;;;;5.63;4.40;;;11.90;99.90;;;;;;5046815;28;20440;-61
2023/05/07 01:23:30;;;;;;;5.50;5.00;;;11.90;99.90;;;;;;5026724;28;20582;-61
2023/05/07 01:25:56;;;;;;;7.83;5.43;;;11.90;99.90;;;;;;5046848;28;21024;-61
2023/05/07 01:28:21;;;;;;;6.60;4.70;;;11.80;99.90;;;;;;5043864;28;20461;-60
2023/05/07 01:30:55;;;;;;;4.90;4.50;;;11.80;99.90;;;;;;5037246;28;20175;-61
2023/05/07 01:33:22;;;;;;;7.73;5.13;;;11.80;99.90;;;;;;5040914;28;20195;-60
2023/05/07 01:35:51;;;;;;;8.53;4.67;;;11.80;99.90;;;;;;5047252;28;20517;-60
2023/05/07 01:38:18;;;;;;;5.20;4.70;;;11.80;99.90;;;;;;5045570;28;20433;-61
2023/05/07 01:40:44;;;;;;;4.77;4.27;;;11.80;99.90;;;;;;5025134;28;20835;-60
2023/05/07 01:43:10;;;;;;;5.23;4.73;;;11.70;99.90;;;;;;5045578;28;20516;-60
2023/05/07 01:45:37;;;;;;;6.87;4.23;;;11.70;99.90;;;;;;5045443;28;20448;-61
2023/05/07 01:48:04;;;;;;;7.67;4.97;;;11.70;99.90;;;;;;5038981;28;20891;-61
2023/05/07 01:50:32;;;;;;;7.60;5.53;;;11.70;99.90;;;;;;5048966;28;20429;-61
2023/05/07 01:52:57;;;;;;;5.20;4.67;;;11.70;99.90;;;;;;5040534;28;20475;-61
2023/05/07 01:55:23;;;;;;;5.90;4.90;;;11.70;99.90;;;;;;5043565;28;20508;-63
2023/05/07 01:57:49;;;;;;;6.13;4.90;;;11.70;99.90;;;;;;5036501;28;20673;-61
2023/05/07 02:00:15;;;;;;;6.23;4.50;;;11.70;99.90;;;;;;5041809;28;20206;-61
2023/05/07 02:02:40;;;;;;;6.37;5.03;;;11.60;99.90;;;;;;5018099;28;20222;-61
2023/05/07 02:05:06;;;;;;;6.50;4.60;;;11.60;99.90;;;;;;5045843;28;20524;-60
2023/05/07 02:07:32;;;;;;;4.60;4.20;;;11.60;99.90;;;;;;5041457;28;20202;-60
2023/05/07 02:09:57;;;;;;;6.93;4.40;;;11.60;99.90;;;;;;5043032;28;20852;-61
2023/05/07 02:12:23;;;;;;;5.33;4.67;;;11.60;99.90;;;;;;5047747;28;20199;-60
2023/05/07 02:14:49;;;;;;;7.13;5.20;;;11.50;99.90;;;;;;5037552;28;20797;-60
2023/05/07 02:17:15;;;;;;;6.60;4.43;;;11.50;99.90;;;;;;5044002;28;20201;-60
2023/05/07 02:19:40;;;;;;;9.17;4.80;;;11.50;99.90;;;;;;5038667;28;20430;-60
2023/05/07 02:22:07;;;;;;;6.17;4.73;;;11.50;99.90;;;;;;5046917;28;20281;-60
2023/05/07 02:24:32;;;;;;;7.90;4.30;;;11.40;99.90;;;;;;5043110;28;20199;-60
2023/05/07 02:26:58;;;;;;;14.13;4.73;;;11.40;99.90;;;;;;5044039;28;20484;-61
2023/05/07 02:29:24;;;;;;;7.07;5.10;;;11.40;99.90;;;;;;5038155;28;20186;-60
2023/05/07 02:31:50;;;;;;;7.97;4.50;;;11.40;99.90;;;;;;5022661;28;20211;-60
2023/05/07 02:34:17;;;;;;;5.43;4.70;;;11.30;99.90;;;;;;5045241;28;20202;-61
2023/05/07 02:36:42;;;;;;;6.60;5.07;;;11.30;99.90;;;;;;5041702;28;20433;-60
2023/05/07 02:39:08;;;;;;;5.10;4.60;;;11.30;99.90;;;;;;5042400;28;20811;-60
2023/05/07 02:41:34;;;;;;;8.03;5.00;;;11.20;99.90;;;;;;5037439;28;20785;-60
2023/05/07 02:43:59;;;;;;;13.40;4.80;;;11.20;99.90;;;;;;5044434;28;20576;-61
2023/05/07 02:46:25;;;;;;;4.70;4.20;;;11.10;99.90;;;;;;5044020;28;21721;-60
2023/05/07 02:48:51;;;;;;;7.77;3.93;;;11.10;99.90;;;;;;5043769;28;20862;-60
2023/05/07 02:51:20;;;;;;;4.77;4.30;;;11.10;99.90;;;;;;5043841;28;20691;-61
2023/05/07 02:53:46;;;;;;;5.27;4.77;;;11.00;99.90;;;;;;5043127;28;20229;-60
2023/05/07 02:56:12;;;;;;;10.93;5.20;;;11.00;99.90;;;;;;5041069;28;20413;-60
2023/05/07 02:58:39;;;;;;;6.70;4.67;;;11.00;99.90;;;;;;5044246;28;20237;-60
2023/05/07 03:01:05;;;;;;;7.40;4.13;;;10.90;99.90;;;;;;5043928;28;20651;-60
2023/05/07 03:03:31;;;;;;;5.10;4.60;;;10.90;99.90;;;;;;5036868;28;20880;-60
2023/05/07 03:05:56;;;;;;;4.47;3.90;;;10.90;99.90;;;;;;5038723;28;20458;-60
2023/05/07 03:08:22;;;;;;;8.90;4.83;;;10.90;99.90;;;;;;5024470;28;20375;-60
2023/05/07 03:10:48;;;;;;;5.73;4.67;;;10.90;99.90;;;;;;5039341;28;20237;-60
2023/05/07 03:13:13;;;;;;;5.67;4.13;;;10.90;99.90;;;;;;5040352;28;20271;-60
2023/05/07 03:15:39;;;;;;;5.53;4.27;;;10.80;99.90;;;;;;5046007;28;20179;-60
2023/05/07 03:18:05;;;;;;;7.83;4.40;;;10.80;99.90;;;;;;5024559;28;20179;-60
2023/05/07 03:20:31;;;;;;;5.03;4.50;;;10.80;99.90;;;;;;5044119;28;20171;-60
2023/05/07 03:22:56;;;;;;;7.13;4.67;;;10.70;99.90;;;;;;5042922;28;20286;-60
2023/05/07 03:25:22;;;;;;;4.90;4.40;;;10.70;99.90;;;;;;5026899;28;20179;-61
2023/05/07 03:27:47;;;;;;;5.10;4.60;;;10.70;99.90;;;;;;5020024;28;20202;-60
2023/05/07 03:30:13;;;;;;;6.60;4.47;;;10.60;99.90;;;;;;5045968;28;20171;-61
2023/05/07 03:32:39;;;;;;;6.60;4.50;;;10.60;99.90;;;;;;5045654;28;20252;-60
2023/05/07 03:35:05;;;;;;;5.13;4.60;;;10.60;99.90;;;;;;5023925;28;20742;-60
2023/05/07 03:37:31;;;;;;;13.43;4.77;;;10.50;99.90;;;;;;5037479;28;20195;-60
2023/05/07 03:39:56;;;;;;;6.80;4.50;;;10.50;99.90;;;;;;5039735;28;20429;-60
2023/05/07 03:42:22;;;;;;;6.60;4.67;;;10.50;99.90;;;;;;5042788;28;20210;-60
2023/05/07 03:44:48;;;;;;;4.80;4.40;;;10.50;99.90;;;;;;5038755;28;20967;-60
2023/05/07 03:47:13;;;;;;;4.60;4.20;;;10.40;99.90;;;;;;5039163;28;20199;-60
2023/05/07 03:49:39;;;;;;;12.03;4.80;;;10.50;99.90;;;;;;5024682;28;20647;-59
2023/05/07 03:52:06;;;;;;;6.83;4.57;;;10.40;99.90;;;;;;5045470;28;20699;-60
2023/05/07 03:54:31;;;;;;;6.90;4.80;;;10.40;99.90;;;;;;5041650;28;20888;-60
2023/05/07 03:56:57;;;;;;;8.43;4.63;;;10.40;99.90;;;;;;5043101;28;20425;-60
2023/05/07 03:59:23;;;;;;;6.00;5.37;;;10.30;99.90;;;;;;5045429;28;20175;-60
2023/05/07 04:01:48;;;;;;;8.73;4.83;;;10.30;99.90;;;;;;5039053;28;20211;-60
2023/05/07 04:04:14;;;;;;;8.40;5.30;;;10.30;99.90;;;;;;5041899;28;20175;-61
2023/05/07 04:06:40;;;;;;;7.23;4.90;;;10.30;99.90;;;;;;5035936;28;20197;-60
2023/05/07 04:09:06;;;;;;;9.73;4.70;;;10.30;99.90;;;;;;5043674;28;21117;-60
2023/05/07 04:11:32;;;;;;;5.00;4.40;;;10.30;99.90;;;;;;5039849;28;20183;-60
2023/05/07 04:13:57;;;;;;;5.33;4.93;;;10.30;99.90;;;;;;5040010;28;21081;-61
2023/05/07 04:16:23;;;;;;;5.03;4.53;;;10.30;99.90;;;;;;5042231;28;20171;-60
2023/05/07 04:18:48;;;;;;;4.63;4.20;;;10.30;99.90;;;;;;5037468;28;20187;-60
2023/05/07 04:21:16;;;;;;;5.87;4.30;;;10.30;99.90;;;;;;5043811;28;20655;-60
2023/05/07 04:23:42;;;;;;;6.00;4.47;;;10.30;99.90;;;;;;5043928;28;20175;-60
2023/05/07 04:26:07;;;;;;;4.70;4.20;;;10.30;99.90;;;;;;5024097;28;20432;-61
2023/05/07 04:28:34;;;;;;;11.07;4.80;;;10.20;99.90;;;;;;5046092;28;20580;-60
2023/05/07 04:31:00;;;;;;;5.33;4.70;;;10.20;99.90;;;;;;5042811;28;20229;-60
2023/05/07 04:33:26;;;;;;;9.60;4.90;;;10.20;99.90;;;;;;5037648;28;21034;-60
2023/05/07 04:35:51;;;;;;;4.67;4.23;;;10.20;99.90;;;;;;5036606;28;20185;-61
2023/05/07 04:38:18;;;;;;;4.60;4.20;;;10.30;99.90;;;;;;5036522;28;20183;-61
2023/05/07 04:40:44;;;;;;;5.87;4.63;;;10.30;99.90;;;;;;5043435;28;20175;-60
2023/05/07 04:43:10;;;;;;;4.50;4.10;;;10.30;99.90;;;;;;5039164;28;20453;-60
2023/05/07 04:45:36;;;;;;;6.17;4.30;;;10.30;99.90;;;;;;5044803;28;20441;-60
2023/05/07 04:48:02;;;;;;;5.20;4.70;;;10.30;99.90;;;;;;5038516;28;20238;-61
2023/05/07 04:50:27;;;;;;;5.77;5.20;;;10.40;99.90;;;;;;5042952;28;20459;-60
2023/05/07 04:52:53;;;;;;;8.00;5.20;;;10.40;99.90;;;;;;5034241;28;20191;-60
2023/05/07 04:55:19;;;;;;;5.17;4.67;;;10.40;99.90;;;;;;5041557;28;20254;-61
2023/05/07 04:57:45;;;;;;;5.00;4.50;;;10.40;99.90;;;;;;5040621;28;20265;-60
2023/05/07 05:00:13;;;;;;;5.90;4.87;;;10.50;99.90;;;;;;5037334;28;20199;-61
2023/05/07 05:02:39;;;;;;;5.57;4.90;;;10.40;99.90;;;;;;5041099;28;20837;-61
2023/05/07 05:05:05;;;;;;;6.07;5.20;;;10.40;99.90;;;;;;5040245;28;20452;-60
2023/05/07 05:07:31;;;;;;;5.57;5.03;;;10.50;99.90;;;;;;5041867;28;20744;-61
2023/05/07 05:09:57;;;;;;;4.73;4.20;;;10.50;99.90;;;;;;5039884;28;20421;-61
2023/05/07 05:12:23;;;;;;;6.77;5.40;;;10.50;99.90;;;;;;5044351;28;20230;-61
2023/05/07 05:14:48;;;;;;;6.93;5.03;;;10.50;99.90;;;;;;5043136;28;20480;-61
2023/05/07 05:17:14;;;;;;;5.17;4.70;;;10.50;99.90;;;;;;5043474;28;20182;-61
2023/05/07 05:19:40;;;;;;;8.20;6.23;;;10.60;99.90;;;;;;5041565;28;20175;-61
2023/05/07 05:22:05;;;;;;;8.23;5.87;;;10.60;99.90;;;;;;5033712;28;20191;-60
2023/05/07 05:24:31;;;;;;;5.83;5.23;;;10.60;99.90;;;;;;5042676;28;20258;-61
2023/05/07 05:26:57;;;;;;;5.40;4.73;;;10.60;99.90;;;;;;5040400;28;20171;-61
2023/05/07 05:29:22;;;;;;;7.20;6.00;;;10.60;99.90;;;;;;5051808;28;20445;-61
2023/05/07 05:31:48;;;;;;;5.90;5.30;;;10.70;99.90;;;;;;5040997;28;20234;-60
2023/05/07 05:34:14;;;;;;;12.03;5.30;;;10.80;99.90;;;;;;5043690;28;20186;-61
2023/05/07 05:36:39;;;;;;;9.13;5.33;;;10.90;99.90;;;;;;5046922;28;20171;-60
2023/05/07 05:39:05;;;;;;;5.80;5.17;;;11.00;99.90;;;;;;5041906;28;20578;-61
2023/05/07 05:41:31;;;;;;;6.97;5.37;;;11.10;99.90;;;;;;5042481;28;20762;-60
2023/05/07 05:43:57;;;;;;;15.50;5.93;;;11.30;99.90;;;;;;5039873;28;20438;-61
2023/05/07 05:46:22;;;;;;;6.20;5.33;;;11.40;99.90;;;;;;5040497;28;20182;-61
2023/05/07 05:48:48;;;;;;;7.53;5.80;;;11.50;99.90;;;;;;5044687;28;20207;-61
2023/05/07 05:51:13;;;;;;;6.23;5.63;;;11.60;99.90;;;;;;5030919;28;20846;-60
2023/05/07 05:53:39;;;;;;;6.93;6.23;;;11.70;99.90;;;;;;5044298;28;20176;-61
2023/05/07 05:56:05;;;;;;;5.20;4.80;;;11.90;99.90;;;;;;5040189;28;20180;-61
2023/05/07 05:58:31;;;;;;;6.10;5.50;;;12.00;99.90;;;;;;5047562;28;20266;-60
2023/05/07 06:00:57;;;;;;;7.10;5.50;;;12.00;99.90;;;;;;5046142;28;20532;-61
2023/05/07 06:03:23;;;;;;;6.23;5.37;;;12.10;99.90;;;;;;5041024;28;20690;-61
2023/05/07 06:05:49;;;;;;;11.23;5.10;;;12.20;99.90;;;;;;5032939;28;20530;-61
2023/05/07 06:08:14;;;;;;;6.27;4.73;;;12.40;99.90;;;;;;5038437;28;20206;-61
2023/05/07 06:10:40;;;;;;;6.87;5.20;;;12.50;99.90;;;;;;5046816;28;20187;-61
2023/05/07 06:13:06;;;;;;;6.30;5.20;;;12.60;99.90;;;;;;5045734;28;20199;-61
2023/05/07 06:15:31;;;;;;;5.47;4.90;;;12.70;99.90;;;;;;5037565;28;20642;-61
2023/05/07 06:17:57;;;;;;;6.53;5.30;;;12.70;99.90;;;;;;5043724;28;20205;-61
2023/05/07 06:20:23;;;;;;;7.17;5.07;;;12.80;99.90;;;;;;5040499;28;20176;-61
2023/05/07 06:22:49;;;;;;;5.37;4.87;;;12.90;99.90;;;;;;5041764;28;20215;-61
2023/05/07 06:25:15;;;;;;;7.13;5.23;;;12.90;99.90;;;;;;5040186;28;20426;-61
2023/05/07 06:27:40;;;;;;;6.53;5.60;;;12.90;99.90;;;;;;5038907;28;20704;-61
2023/05/07 06:30:07;;;;;;;8.07;4.80;;;12.90;99.90;;;;;;5048435;28;20190;-60
2023/05/07 06:32:32;;;;;;;9.40;4.87;;;13.00;99.90;;;;;;5042519;28;20572;-60
2023/05/07 06:34:58;;;;;;;9.93;5.77;;;13.10;99.90;;;;;;5044947;28;20433;-60
2023/05/07 06:37:24;;;;;;;8.37;5.47;;;13.10;99.90;;;;;;5040673;28;20183;-60
2023/05/07 06:39:49;;;;;;;9.17;5.80;;;13.20;99.90;;;;;;5014425;28;20556;-61
2023/05/07 06:42:15;;;;;;;9.43;5.80;;;13.30;99.90;;;;;;5044711;28;20195;-60
2023/05/07 06:44:40;;;;;;;5.80;5.23;;;13.30;99.90;;;;;;5019974;28;20253;-61
2023/05/07 06:47:06;;;;;;;7.57;6.40;;;13.40;99.90;;;;;;5041501;28;20184;-60
2023/05/07 06:49:33;;;;;;;6.20;5.60;;;13.50;99.90;;;;;;5024090;28;20875;-61
2023/05/07 06:51:58;;;;;;;6.03;5.40;;;13.60;99.90;;;;;;5036481;28;20195;-60
2023/05/07 06:54:24;;;;;;;5.63;5.13;;;13.70;99.90;;;;;;5044787;28;20464;-60
2023/05/07 06:56:49;;;;;;;7.20;6.37;;;13.90;99.90;;;;;;5046331;28;20218;-60
2023/05/07 06:59:15;;;;;;;9.87;6.07;;;14.10;99.90;;;;;;5043376;28;20218;-60
2023/05/07 07:01:41;;;;;;;11.33;6.70;;;14.30;99.90;;;;;;5044060;28;20242;-60
2023/05/07 07:04:07;;;;;;;6.73;6.03;;;14.30;99.90;;;;;;5045967;28;20995;-59
2023/05/07 07:06:33;;;;;;;8.30;7.20;;;14.30;99.90;;;;;;5040792;28;20187;-62
2023/05/07 07:08:59;;;;;;;7.67;6.13;;;14.20;99.90;;;;;;5045420;28;20214;-60
2023/05/07 07:11:24;;;;;;;7.00;6.30;;;14.10;99.90;;;;;;5040104;28;20175;-61
2023/05/07 07:13:50;;;;;;;8.27;6.60;;;14.10;99.90;;;;;;5032917;28;20431;-61
2023/05/07 07:16:16;;;;;;;9.13;6.80;;;14.10;99.90;;;;;;5040144;28;20175;-61
2023/05/07 07:18:42;;;;;;;8.67;6.77;;;14.10;99.90;;;;;;5039268;28;20190;-61
2023/05/07 07:21:07;;;;;;;7.00;6.30;;;14.20;99.90;;;;;;5030285;28;20285;-61
2023/05/07 07:23:33;;;;;;;8.03;7.17;;;14.20;99.90;;;;;;5021075;28;20691;-62
2023/05/07 07:25:59;;;;;;;7.07;5.77;;;14.40;99.90;;;;;;5040635;28;20183;-63
2023/05/07 07:28:24;;;;;;;9.33;6.90;;;14.60;99.90;;;;;;5047162;28;20238;-63
2023/05/07 07:30:50;;;;;;;8.23;5.40;;;14.80;99.90;;;;;;5044297;28;20244;-62
2023/05/07 07:33:16;;;;;;;8.77;6.17;;;15.00;99.90;;;;;;5019728;28;20811;-63
2023/05/07 07:35:42;;;;;;;7.43;5.60;;;15.20;99.90;;;;;;5041511;28;20182;-64
2023/05/07 07:38:08;;;;;;;8.40;5.90;;;15.40;99.90;;;;;;5023361;28;20175;-63
2023/05/07 07:40:35;;;;;;;5.90;5.07;;;15.50;99.90;;;;;;5037565;28;20524;-61
2023/05/07 07:43:01;;;;;;;6.10;5.50;;;15.70;99.90;;;;;;5029939;28;20203;-62
2023/05/07 07:45:27;;;;;;;6.63;5.50;;;15.80;99.90;;;;;;5041237;28;20433;-62
2023/05/07 07:47:52;;;;;;;10.50;5.37;;;16.00;99.90;;;;;;5040504;28;20463;-63
2023/05/07 07:50:18;;;;;;;8.93;5.27;;;16.10;99.90;;;;;;5036673;28;20426;-64
2023/05/07 07:52:44;;;;;;;7.60;5.90;;;16.30;99.90;;;;;;5038719;28;20529;-64
2023/05/07 07:55:10;;;;;;;5.00;4.60;;;16.30;97.50;;;;;;5046757;28;20548;-64
2023/05/07 07:57:35;;;;;;;7.63;5.30;;;16.40;96.00;;;;;;5042591;28;20434;-64
2023/05/07 08:00:02;;;;;;;6.63;4.63;;;16.50;96.30;;;;;;5033031;28;20175;-63
2023/05/07 08:02:28;;;;;;;8.27;5.73;;;16.70;96.40;;;;;;5033415;28;20213;-64
2023/05/07 08:04:53;;;;;;;6.07;5.57;;;16.80;94.40;;;;;;5035595;28;20429;-63
2023/05/07 08:07:20;;;;;;;9.13;4.90;;;16.80;92.60;;;;;;5034992;28;20608;-61
2023/05/07 08:09:46;;;;;;;6.57;5.30;;;16.90;92.00;;;;;;5038057;28;20175;-62
2023/05/07 08:12:12;;;;;;;7.20;5.87;;;17.00;92.70;;;;;;5034624;28;20452;-60
2023/05/07 08:14:38;;;;;;;6.00;5.50;;;17.20;93.90;;;;;;5034736;28;20803;-61
2023/05/07 08:17:04;;;;;;;8.20;6.30;;;17.30;91.60;;;;;;5041705;28;20176;-59
2023/05/07 08:19:29;;;;;;;5.73;5.20;;;17.50;91.80;;;;;;5026343;28;20227;-60
2023/05/07 08:21:55;;;;;;;6.00;5.40;;;17.60;90.30;;;;;;5028790;28;20198;-64
2023/05/07 08:24:21;;;;;;;7.57;5.37;;;17.70;90.20;;;;;;5027714;28;20200;-59
2023/05/07 08:26:46;;;;;;;8.13;4.97;;;17.80;91.70;;;;;;5037444;28;20195;-60
2023/05/07 08:29:12;;;;;;;8.23;5.27;;;18.00;92.70;;;;;;5018540;28;20229;-60
2023/05/07 08:31:40;;;;;;;5.10;4.60;;;18.20;86.80;;;;;;5037282;28;20213;-60
2023/05/07 08:34:06;;;;;;;6.13;4.40;;;18.20;81.20;;;;;;5023030;28;20179;-59
2023/05/07 08:36:32;;;;;;;6.97;4.70;;;18.30;80.60;;;;;;5034388;28;20442;-60
2023/05/07 08:38:59;;;;;;;6.60;4.90;;;18.50;77.50;;;;;;5033630;28;20445;-57
2023/05/07 08:41:24;;;;;;;5.23;4.20;;;18.60;75.90;;;;;;5038955;28;20770;-57
2023/05/07 08:43:51;;;;;;;5.20;4.37;;;18.70;75.00;;;;;;5029448;28;20434;-58
2023/05/07 08:46:19;;;;;;;6.73;4.63;;;18.70;70.50;;;;;;5034556;28;20179;-58
2023/05/07 08:48:47;;;;;;;9.20;4.73;;;18.80;72.10;;;;;;5030880;28;21066;-56
2023/05/07 08:51:15;;;;;;;4.80;4.07;;;18.80;72.20;;;;;;5027022;28;20435;-59
2023/05/07 08:53:41;;;;;;;6.40;4.30;;;18.80;70.60;;;;;;5036844;28;20918;-58
2023/05/07 08:56:08;;;;;;;4.53;4.00;;;18.90;69.50;;;;;;5042548;28;20445;-61
2023/05/07 08:58:34;;;;;;;3.77;3.20;;;19.00;67.70;;;;;;5035313;28;20932;-56
2023/05/07 09:01:13;;;;;;;6.63;3.60;;;19.00;67.10;;;;;;5039380;28;20496;-57
2023/05/07 09:03:40;;;;;;;5.50;3.50;;;19.10;66.10;;;;;;5035395;28;20285;-59
2023/05/07 09:06:06;;;;;;;3.70;3.00;;;19.10;65.10;;;;;;5038451;28;20440;-57
2023/05/07 09:08:35;;;;;;;3.87;3.20;;;19.30;64.30;;;;;;5038672;28;20465;-63
2023/05/07 09:11:02;;;;;;;6.30;3.20;;;19.40;63.90;;;;;;5043640;28;20445;-61
2023/05/07 09:13:28;;;;;;;2.97;2.67;;;19.50;63.90;;;;;;5042343;28;20884;-61
2023/05/07 09:15:55;;;;;;;4.70;3.27;;;19.60;62.00;;;;;;5034823;28;20514;-62
2023/05/07 09:18:20;;;;;;;4.30;2.90;;;19.70;61.00;;;;;;5035311;28;20525;-61
2023/05/07 09:20:46;;;;;;;3.30;3.00;;;19.80;60.10;;;;;;5044993;28;20437;-60
2023/05/07 09:23:12;;;;;;;3.10;2.60;;;19.80;59.20;;;;;;5036858;28;20199;-60
2023/05/07 09:25:37;;;;;;;4.30;2.40;;;20.00;59.10;;;;;;5028329;28;20249;-56
2023/05/07 09:28:05;;;;;;;4.80;3.00;;;20.00;59.00;;;;;;5026692;28;20234;-57
2023/05/07 09:30:31;;;;;;;3.63;2.40;;;20.20;59.00;;;;;;5037071;28;20670;-56
2023/05/07 09:33:02;;;;;;;3.93;2.83;;;20.30;58.90;;;;;;5043713;28;20476;-58
2023/05/07 09:35:29;;;;;;;3.40;2.53;;;20.50;59.60;;;;;;5037867;28;20439;-55
2023/05/07 09:38:00;;;;;;;4.47;2.90;;;20.60;57.70;;;;;;5038495;28;20440;-56
2023/05/07 09:40:30;;;;;;;3.83;2.80;;;20.70;58.00;;;;;;5035209;28;20440;-55
2023/05/07 09:42:56;;;;;;;4.27;2.93;;;20.80;57.80;;;;;;5034718;28;20489;-59
2023/05/07 09:45:32;;;;;;;3.43;3.10;;;20.90;57.30;;;;;;5034878;28;20525;-58
2023/05/07 09:47:58;;;;;;;8.47;3.33;;;21.00;56.80;;;;;;5036805;28;20233;-58
2023/05/07 09:50:30;;;;;;;4.20;3.40;;;20.80;56.20;;;;;;5038742;28;20498;-59
2023/05/07 09:52:56;;;;;;;3.93;3.20;;;20.70;57.30;;;;;;5037140;28;20465;-56
2023/05/07 09:55:22;;;;;;;5.47;3.63;;;20.70;58.30;;;;;;5032245;28;20529;-58
2023/05/07 09:57:52;;;;;;;4.13;3.10;;;20.70;58.70;;;;;;5034614;28;20544;-58
2023/05/07 10:00:22;;;;;;;3.93;3.20;;;20.70;58.00;;;;;;5035754;28;20186;-58
2023/05/07 10:02:51;;;;;;;10.43;3.27;;;20.80;58.00;;;;;;5044205;28;21025;-58
2023/05/07 10:05:20;;;;;;;7.50;3.47;;;20.80;58.40;;;;;;5038750;28;20514;-58
2023/05/07 10:07:46;;;;;;;4.93;3.20;;;20.90;58.60;;;;;;5038973;28;21001;-59
2023/05/07 10:10:12;;;;;;;4.63;3.73;;;21.00;58.40;;;;;;5039184;28;20483;-58
2023/05/07 10:12:40;;;;;;;3.40;2.80;;;21.10;57.00;;;;;;5032085;28;20981;-59
2023/05/07 10:15:07;;;;;;;4.50;3.20;;;21.20;56.90;;;;;;5037084;28;20437;-58
2023/05/07 10:17:39;;;;;;;7.53;3.00;;;21.30;57.00;;;;;;5044516;28;20436;-60
2023/05/07 10:20:06;;;;;;;4.47;3.10;;;21.40;56.30;;;;;;5016284;28;20458;-59
2023/05/07 10:22:55;;;;;;;5.70;3.90;;;21.30;55.30;;;;;;5040008;28;21113;-59
2023/05/07 10:25:28;;;;;;;5.10;3.40;;;21.30;56.90;;;;;;5079074;23;20489;-60
2023/05/07 10:27:56;;;;;;;4.93;4.00;;;21.30;57.10;;;;;;5039744;28;20519;-59
2023/05/07 10:30:41;;;;;;;7.70;4.00;;;21.20;56.90;;;;;;5041489;28;20484;-60
2023/05/07 10:33:10;;;;;;;4.10;3.57;;;21.20;55.70;;;;;;5036459;28;21006;-60
2023/05/07 10:35:43;;;;;;;6.03;4.10;;;21.00;56.30;;;;;;5031568;28;20474;-59
2023/05/07 10:38:10;;;;;;;7.30;3.70;;;21.00;57.10;;;;;;5018917;28;20509;-57
2023/05/07 10:40:36;;;;;;;5.30;3.30;;;21.10;57.30;;;;;;5016117;28;20467;-57
2023/05/07 10:43:06;;;;;;;8.23;4.70;;;21.30;57.10;;;;;;5014420;28;20535;-58
2023/05/07 10:45:32;;;;;;;3.93;3.53;;;21.40;56.80;;;;;;5001830;28;20506;-58
2023/05/07 10:48:11;;;;;;;4.80;3.03;;;21.60;56.80;;;;;;5021015;28;20454;-59
2023/05/07 10:50:39;;;;;;;4.33;3.43;;;21.70;56.40;;;;;;5001550;28;20435;-57
2023/05/07 10:53:17;;;;;;;5.90;4.50;;;21.80;56.80;;;;;;5020517;28;20430;-59
2023/05/07 10:55:47;;;;;;;4.27;3.40;;;21.90;56.30;;;;;;5021695;28;21007;-56
2023/05/07 10:58:26;;;;;;;9.83;3.90;;;22.00;56.10;;;;;;5017414;28;20528;-58
2023/05/07 11:01:00;;;;;;;5.30;4.30;;;22.10;56.70;;;;;;5016979;28;20521;-58
2023/05/07 11:03:26;;;;;;;5.00;3.87;;;22.20;55.30;;;;;;5019032;28;20458;-58
2023/05/07 11:06:14;;;;;;;4.30;3.73;;;22.20;55.30;;;;;;5018163;28;20812;-57
2023/05/07 11:08:52;;;;;;;4.57;3.53;;;22.30;56.20;;;;;;5008342;28;20500;-55
2023/05/07 11:11:18;;;;;;;5.93;2.90;;;22.30;55.30;;;;;;5009787;28;20426;-56
2023/05/07 11:13:47;;;;;;;8.37;3.50;;;22.20;53.30;;;;;;5012125;28;22300;-58
2023/05/07 11:16:24;;;;;;;6.53;4.07;;;22.10;53.20;;;;;;4987907;28;20807;-58
2023/05/07 11:18:51;;;;;;;9.33;3.40;;;22.00;53.50;;;;;;5011980;28;20453;-59
2023/05/07 11:21:36;;;;;;;4.60;3.80;;;21.80;53.60;;;;;;5017942;28;21210;-59
2023/05/07 11:24:03;;;;;;;6.20;3.33;;;21.60;53.80;;;;;;5009627;28;20982;-61
2023/05/07 11:26:49;;;;;;;5.60;3.30;;;21.40;54.70;;;;;;5012763;28;20512;-56
2023/05/07 11:29:22;;;;;;;5.07;4.10;;;21.20;55.60;;;;;;5006956;28;20450;-57
2023/05/07 11:31:53;;;;;;;7.60;4.23;;;21.00;56.50;;;;;;5010784;28;20462;-60
2023/05/07 11:34:26;;;;;;;4.90;4.10;;;20.90;57.40;;;;;;5017873;28;20466;-58
2023/05/07 11:36:53;;;;;;;6.10;4.50;;;20.80;58.00;;;;;;5010996;28;21059;-56
2023/05/07 11:39:25;;;;;;;6.40;4.97;;;20.70;58.00;;;;;;5010781;28;20442;-59
2023/05/07 11:41:51;;;;;;;4.83;4.10;;;20.70;58.50;;;;;;5018787;28;21991;-58
2023/05/07 11:44:17;;;;;;;6.00;4.13;;;20.90;59.10;;;;;;5016017;28;21006;-57
2023/05/07 11:46:45;;;;;;;9.97;4.30;;;21.00;58.80;;;;;;5009343;28;20334;-59
2023/05/07 11:49:11;;;;;;;6.03;4.40;;;21.10;59.10;;;;;;5014369;28;20243;-60
2023/05/07 11:51:38;;;;;;;6.70;3.80;;;21.20;59.10;;;;;;5010533;28;20427;-61
2023/05/07 11:54:08;;;;;;;5.90;3.77;;;21.20;58.40;;;;;;5008483;28;21487;-60
2023/05/07 11:56:35;;;;;;;9.10;3.80;;;21.10;58.50;;;;;;5010155;28;20464;-59
2023/05/07 11:59:01;;;;;;;5.67;3.80;;;21.00;58.30;;;;;;5008148;28;20889;-60
2023/05/07 12:01:26;;;;;;;5.23;3.37;;;20.90;58.50;;;;;;5009199;28;20449;-58
2023/05/07 12:03:52;;;;;;;6.17;4.30;;;20.80;58.90;;;;;;5013656;28;20186;-58
2023/05/07 12:06:19;;;;;;;9.53;3.63;;;20.60;59.20;;;;;;5012785;28;20616;-58
2023/05/07 12:08:45;;;;;;;9.40;3.60;;;20.50;58.90;;;;;;5010115;28;20611;-58
2023/05/07 12:11:23;;;;;;;4.80;3.70;;;20.30;58.80;;;;;;5010130;28;20426;-59
2023/05/07 12:13:49;;;;;;;3.80;3.33;;;20.10;59.10;;;;;;4998418;28;20438;-59
2023/05/07 12:16:15;;;;;;;6.10;3.53;;;19.90;59.40;;;;;;4995310;28;20454;-58
2023/05/07 12:18:41;;;;;;;4.93;3.80;;;19.80;60.00;;;;;;5012996;28;20235;-57
2023/05/07 12:21:07;;;;;;;5.50;3.27;;;19.60;60.80;;;;;;4999787;28;20291;-58
2023/05/07 12:23:34;;;;;;;5.23;3.17;;;19.50;61.50;;;;;;5010390;28;20422;-58
2023/05/07 12:26:00;;;;;;;4.17;3.33;;;19.40;62.60;;;;;;4995845;28;20566;-57
2023/05/07 12:28:26;;;;;;;9.67;3.10;;;19.20;63.10;;;;;;5016974;28;20843;-59
2023/05/07 12:30:52;;;;;;;7.30;2.90;;;19.00;63.20;;;;;;5012124;28;20427;-59
2023/05/07 12:33:23;;;;;;;4.50;3.33;;;18.80;64.10;;;;;;5009828;28;20218;-59
2023/05/07 12:35:49;;;;;;;6.80;4.30;;;18.60;66.50;;;;;;5015460;28;20450;-59
2023/05/07 12:38:17;;;;;;;10.73;3.80;;;18.30;69.60;;;;;;5000832;28;20462;-60
2023/05/07 12:40:45;;;;;;;12.17;4.83;;;18.00;77.20;;;;;;5005977;28;20439;-60
2023/05/07 12:43:27;;;;;;;11.50;4.37;;;17.70;84.50;;;;;;5005857;28;20922;-62